Time;durP1;ratioP1;P1;durP2;ratioP2;P2;SDS_P1;SDS_P2;PMS_P1;PMS_P2;Temp;Humidity;BMP_temperature;BMP_pressure;BME280_temperature;BME280_humidity;BME280_pressure;Samples;Min_cycle;Max_cycle;Signal;HPM_P1;HPM_P2
2023/06/17 16:39:56;;;;;;;19.45;7.82;;;23.40;49.00;;;;;;10520565;28;20324;-59
2023/06/17 16:44:57;;;;;;;18.00;6.47;;;23.40;49.30;;;;;;10441235;28;20021;-60
2023/06/17 16:49:58;;;;;;;19.55;7.97;;;23.40;48.70;;;;;;10437563;28;20104;-60
2023/06/17 16:54:58;;;;;;;18.45;7.22;;;23.50;49.00;;;;;;10426742;28;20492;-59
2023/06/17 16:59:59;;;;;;;16.02;6.53;;;23.40;49.30;;;;;;10430999;28;20023;-59
2023/06/17 17:05:00;;;;;;;17.52;6.30;;;23.40;49.30;;;;;;10434817;28;20017;-59
2023/06/17 17:10:01;;;;;;;18.42;7.68;;;23.40;49.70;;;;;;10434012;28;20078;-58
2023/06/17 17:15:01;;;;;;;20.92;7.63;;;23.30;49.60;;;;;;10437705;28;20025;-59
2023/06/17 17:20:02;;;;;;;15.30;6.93;;;23.30;49.50;;;;;;10438041;28;20104;-59
2023/06/17 17:25:03;;;;;;;12.60;6.30;;;23.40;49.40;;;;;;10432385;28;20037;-59
2023/06/17 17:30:05;;;;;;;15.48;6.80;;;23.40;49.40;;;;;;10418307;28;20484;-59
2023/06/17 17:35:07;;;;;;;10.60;5.80;;;23.40;49.80;;;;;;10435945;28;20021;-59
2023/06/17 17:40:08;;;;;;;17.45;6.47;;;23.30;49.80;;;;;;10436649;28;20096;-59
2023/06/17 17:45:09;;;;;;;21.90;10.18;;;23.40;49.70;;;;;;10416464;28;20026;-57
2023/06/17 17:50:11;;;;;;;15.13;6.70;;;23.30;50.00;;;;;;10397992;28;20026;-57
2023/06/17 17:55:12;;;;;;;20.50;6.50;;;23.40;49.90;;;;;;10389593;28;20121;-59
2023/06/17 18:00:13;;;;;;;14.75;6.13;;;23.40;50.60;;;;;;10393482;28;20026;-59
2023/06/17 18:05:14;;;;;;;21.35;8.23;;;23.40;51.00;;;;;;10409135;28;20083;-59
2023/06/17 18:10:15;;;;;;;12.57;6.30;;;23.50;50.80;;;;;;10401894;28;20071;-58
2023/06/17 18:15:15;;;;;;;12.82;5.28;;;23.40;51.00;;;;;;10403391;28;20056;-59
2023/06/17 18:20:16;;;;;;;11.02;5.97;;;23.40;51.20;;;;;;10407894;28;20056;-62
2023/06/17 18:25:17;;;;;;;13.75;5.47;;;23.40;51.40;;;;;;10400796;28;20120;-61
2023/06/17 18:30:17;;;;;;;12.95;5.28;;;23.40;51.40;;;;;;10406549;28;20360;-60
2023/06/17 18:35:18;;;;;;;14.52;6.22;;;23.40;52.00;;;;;;10404228;28;20034;-60
2023/06/17 18:40:19;;;;;;;14.55;5.25;;;23.40;52.00;;;;;;10388086;28;20021;-60
2023/06/17 18:45:19;;;;;;;12.45;6.32;;;23.40;52.20;;;;;;10394747;28;20025;-61
2023/06/17 18:50:20;;;;;;;10.40;5.15;;;23.40;52.40;;;;;;10376093;28;20684;-59
2023/06/17 18:55:21;;;;;;;11.60;5.53;;;23.40;52.50;;;;;;10378184;28;20380;-60
2023/06/17 19:00:22;;;;;;;9.88;5.20;;;23.40;53.00;;;;;;10391424;28;20018;-60
2023/06/17 19:05:23;;;;;;;15.90;6.93;;;23.40;53.30;;;;;;10402124;28;20427;-60
2023/06/17 19:10:23;;;;;;;11.70;5.25;;;23.30;52.90;;;;;;10401420;28;20021;-59
2023/06/17 19:15:25;;;;;;;7.57;5.40;;;23.30;52.90;;;;;;10403636;28;20072;-59
2023/06/17 19:20:25;;;;;;;9.32;5.15;;;23.30;53.00;;;;;;10405329;28;20448;-60
2023/06/17 19:25:26;;;;;;;15.40;6.78;;;23.30;53.20;;;;;;10405211;28;20033;-59
2023/06/17 19:30:27;;;;;;;8.57;4.90;;;23.30;53.20;;;;;;10403948;28;20047;-60
2023/06/17 19:35:28;;;;;;;7.10;4.13;;;23.30;53.20;;;;;;10392780;28;20045;-59
2023/06/17 19:40:28;;;;;;;8.18;4.93;;;23.30;53.30;;;;;;10402418;28;20052;-57
2023/06/17 19:45:29;;;;;;;9.90;4.40;;;23.20;53.20;;;;;;10400893;28;20024;-61
2023/06/17 19:50:34;;;;;;;8.43;5.30;;;23.20;53.20;;;;;;10397838;28;20108;-60
2023/06/17 19:55:37;;;;;;;6.95;4.93;;;23.20;53.20;;;;;;10397183;28;20059;-60
2023/06/17 20:00:37;;;;;;;5.63;4.15;;;23.20;53.30;;;;;;10404968;28;20014;-59
2023/06/17 20:05:38;;;;;;;6.78;4.63;;;23.20;53.50;;;;;;10399836;28;20043;-60
2023/06/17 20:10:39;;;;;;;7.05;4.47;;;23.20;53.30;;;;;;10402688;28;20022;-61
2023/06/17 20:15:41;;;;;;;8.00;4.45;;;23.20;53.30;;;;;;10386798;28;20498;-61
2023/06/17 20:20:41;;;;;;;7.50;4.20;;;23.20;53.30;;;;;;10404328;28;20014;-60
2023/06/17 20:25:42;;;;;;;7.22;5.00;;;23.20;53.40;;;;;;10403344;28;20100;-60
2023/06/17 20:30:43;;;;;;;6.03;4.10;;;23.20;53.30;;;;;;10418975;28;20013;-61
2023/06/17 20:35:45;;;;;;;8.40;4.35;;;23.20;53.40;;;;;;10394298;28;20464;-61
2023/06/17 20:40:46;;;;;;;6.30;4.90;;;23.20;53.50;;;;;;10405421;28;20026;-62
2023/06/17 20:45:49;;;;;;;5.93;4.68;;;23.20;53.70;;;;;;10397499;28;20638;-62
2023/06/17 20:50:50;;;;;;;8.07;4.20;;;23.10;53.70;;;;;;10398359;28;20029;-62
2023/06/17 20:55:50;;;;;;;7.82;6.10;;;23.10;53.70;;;;;;10399383;28;20116;-61
2023/06/17 21:00:51;;;;;;;8.32;4.07;;;23.10;53.60;;;;;;10404758;28;20052;-61
2023/06/17 21:05:52;;;;;;;7.68;5.03;;;23.10;53.50;;;;;;10403755;28;20021;-61
2023/06/17 21:10:52;;;;;;;6.55;5.03;;;23.10;53.50;;;;;;10403117;28;20022;-61
2023/06/17 21:15:53;;;;;;;6.88;4.55;;;23.10;53.50;;;;;;10403136;28;20034;-61
2023/06/17 21:20:54;;;;;;;8.30;4.75;;;23.10;53.50;;;;;;10393325;28;20017;-60
2023/06/17 21:25:55;;;;;;;5.50;4.40;;;23.10;53.60;;;;;;10410930;28;20108;-62
2023/06/17 21:30:56;;;;;;;5.38;4.20;;;23.10;53.60;;;;;;10402662;28;20026;-61
2023/06/17 21:35:57;;;;;;;6.22;4.20;;;23.10;53.60;;;;;;10402768;28;20488;-62
2023/06/17 21:40:58;;;;;;;6.47;5.32;;;23.10;53.60;;;;;;10404671;28;20549;-61
2023/06/17 21:46:00;;;;;;;6.30;4.50;;;23.10;53.60;;;;;;10410111;28;20183;-61
2023/06/17 21:51:00;;;;;;;7.32;4.40;;;23.10;53.90;;;;;;10409907;28;20028;-62
2023/06/17 21:56:01;;;;;;;6.32;4.63;;;23.10;53.70;;;;;;10409779;28;20033;-62
2023/06/17 22:01:02;;;;;;;6.55;4.32;;;23.10;53.60;;;;;;10408753;28;20052;-62
2023/06/17 22:06:02;;;;;;;6.30;4.78;;;23.10;53.70;;;;;;10409563;28;20049;-62
2023/06/17 22:11:03;;;;;;;5.65;4.88;;;23.10;53.50;;;;;;10409175;28;20043;-62
2023/06/17 22:16:04;;;;;;;8.18;5.00;;;23.10;53.50;;;;;;10309388;28;20499;-62
2023/06/17 22:21:06;;;;;;;6.53;4.55;;;23.10;53.50;;;;;;10328592;28;20382;-61
2023/06/17 22:26:06;;;;;;;5.82;4.78;;;23.10;53.50;;;;;;10319960;28;20476;-61
2023/06/17 22:31:07;;;;;;;5.80;4.70;;;23.10;53.40;;;;;;10293617;28;20044;-60
2023/06/17 22:36:08;;;;;;;4.45;3.95;;;23.00;53.40;;;;;;10315685;28;20129;-61
2023/06/17 22:41:09;;;;;;;5.55;4.38;;;23.00;53.40;;;;;;10327776;28;20493;-60
2023/06/17 22:46:10;;;;;;;5.72;4.47;;;23.00;53.50;;;;;;10323965;28;20122;-60
2023/06/17 22:51:11;;;;;;;5.65;4.22;;;23.00;53.50;;;;;;10326028;28;20385;-61
2023/06/17 22:56:11;;;;;;;6.05;4.65;;;23.00;53.50;;;;;;10325584;28;20123;-61
2023/06/17 23:01:12;;;;;;;6.03;4.88;;;23.00;53.50;;;;;;10309636;28;20113;-61
2023/06/17 23:06:13;;;;;;;5.43;4.40;;;23.00;53.50;;;;;;10312584;28;20527;-61
2023/06/17 23:11:14;;;;;;;5.63;4.65;;;23.00;53.50;;;;;;10314489;28;20018;-61
2023/06/17 23:16:15;;;;;;;6.60;4.82;;;23.00;53.60;;;;;;10341043;28;20018;-62
2023/06/17 23:21:15;;;;;;;7.40;5.13;;;23.00;53.50;;;;;;10326507;28;20023;-62
2023/06/17 23:26:16;;;;;;;5.22;4.32;;;23.00;53.70;;;;;;10324684;28;20050;-62
2023/06/17 23:31:17;;;;;;;5.38;4.50;;;23.00;53.60;;;;;;10325901;28;20093;-61
2023/06/17 23:36:17;;;;;;;6.53;4.60;;;23.00;53.80;;;;;;10324124;28;20137;-62
2023/06/17 23:41:18;;;;;;;6.95;4.88;;;23.00;53.70;;;;;;10324114;28;20021;-60
2023/06/17 23:46:19;;;;;;;5.00;3.97;;;23.00;53.90;;;;;;10321953;28;20101;-60
2023/06/17 23:51:19;;;;;;;5.40;4.38;;;23.00;53.80;;;;;;10324017;28;20076;-61
2023/06/17 23:56:20;;;;;;;5.95;4.80;;;23.00;54.00;;;;;;10305783;28;20481;-61
